Shannon, Ireland

1:37 PM IST on July 07, 2015 (GMT +0100)
Shannon | | Change Station
CLOSE
Current Station
Airport
Location: Shannon,
Elevation: 66 ft
Nearby Weather Stations

Elev 66 ft 52.70 °N, 8.92 °W | Updated 7 minutes ago

Light Rain
Light Rain Drizzle
55 °F
Feels Like 55 °F
N
30
Wind Variable Wind from WSW
Gusts 41 mph

Today
High -- | Low -- °F
--% Chance of Precip.
Yesterday
High -- | Low -- °F
Precip. -- in
5:20 AM 9:59 PM
Waning Gibbous, 65% visible
Pressure 29.68 in
Visibility 5.6 miles
Clouds Few 1200 ft
Scattered Clouds 1800 ft
Mostly Cloudy 6000 ft
Dew Point 52 °F
Humidity 88%
Rainfall 0.00 in
Snow Depth Not available.
UV 5 out of 12
Pollen Not available.
Air Quality Not available.
Flu Activity Not available.
METAR EINN 071230Z 24026G36KT 9000 -RADZ FEW012 SCT018 BKN060 13/11 Q1005 TEMPO BKN012

More Conditions Fewer Conditions

Pressure 29.68 in
Visibility 5.6 miles
Clouds Few 1200 ft
Scattered Clouds 1800 ft
Mostly Cloudy 6000 ft
Dew Point 52 °F
Humidity 88%
Rainfall 0.00 in
Snow Depth Not available.
UV 5 out of 12
Pollen Not available.
Air Quality Not available.
Flu Activity Not available.
METAR EINN 071230Z 24026G36KT 9000 -RADZ FEW012 SCT018 BKN060 13/11 Q1005 TEMPO BKN012

More Conditions Fewer Conditions

10-Day Weather Forecast

×

Almanac

Astronomy

Jul. 07, 2015 Rise Set
Actual Time
Civil Twilight
Nautical Twilight
Astronomical Twilight
Moon
Length of Visible Light
Length of Day
Tomorrow will be .
, % of the Moon is Illuminated

Today's Extremes

Country Highs Country Lows

Community

WunderPhotos

Upload Photos

1,835,788 photos uploaded!

WunderBlogs® & News

Nearby

Air Quality

  Air Quality AQ Index Pollutant
Not available.

Snow Depth

Station Depth Elevation

Earthquake Activity

City Distance Mag. Time & Date
Minimum magnitude displayed is 2.5.

Coastal Water Temperatures

Place Temperature

Stations

Nearby Weather Stations

Station Location Temp. Windchill Dew Point Humidity Wind Precip. Elev Updated Type